Time;durP1;ratioP1;P1;durP2;ratioP2;P2;SDS_P1;SDS_P2;PMS_P1;PMS_P2;Temp;Humidity;BMP_temperature;BMP_pressure;BME280_temperature;BME280_humidity;BME280_pressure;Samples;Min_cycle;Max_cycle;Signal;HPM_P1;HPM_P2
2023/04/16 00:01:22;;;;;;;0.33;0.33;;;;;;;6.17;99.11;95207.31;4359434;32;20435;-59
2023/04/16 00:03:47;;;;;;;0.73;0.73;;;;;;;6.27;99.11;95206.50;4329817;32;20196;-58
2023/04/16 00:06:13;;;;;;;0.50;0.50;;;;;;;6.23;98.77;95206.25;4338483;32;20181;-58
2023/04/16 00:08:40;;;;;;;0.90;0.90;;;;;;;6.26;98.58;95207.56;4353172;32;20189;-58
2023/04/16 00:11:07;;;;;;;0.40;0.40;;;;;;;6.18;99.40;95199.16;4333437;32;20282;-58
2023/04/16 00:13:34;;;;;;;0.20;0.20;;;;;;;6.27;99.02;95202.00;4326291;32;20294;-59
2023/04/16 00:16:03;;;;;;;0.57;0.57;;;;;;;6.30;97.79;95203.31;4320375;32;20287;-58
2023/04/16 00:18:31;;;;;;;0.73;0.73;;;;;;;6.13;98.62;95204.44;4267089;33;20286;-58
2023/04/16 00:20:58;;;;;;;0.33;0.33;;;;;;;6.11;99.02;95201.28;4327209;32;20290;-58
2023/04/16 00:23:26;;;;;;;1.07;1.07;;;;;;;6.19;98.85;95200.75;4303576;33;20293;-58
2023/04/16 00:25:55;;;;;;;0.93;0.93;;;;;;;6.24;99.19;95207.03;4300729;33;20357;-58
2023/04/16 00:28:28;;;;;;;0.40;0.40;;;;;;;6.36;98.53;95202.25;4325476;32;20342;-59
2023/04/16 00:30:55;;;;;;;0.80;0.80;;;;;;;6.31;98.37;95208.31;4301384;32;20334;-58
2023/04/16 00:33:28;;;;;;;0.90;0.90;;;;;;;6.23;99.19;95208.91;4315400;32;21907;-58
2023/04/16 00:35:55;;;;;;;0.60;0.60;;;;;;;6.30;98.64;95195.44;4308808;32;20313;-59
2023/04/16 00:38:23;;;;;;;0.60;0.60;;;;;;;6.13;98.67;95207.06;4314398;32;20350;-61
2023/04/16 00:40:50;;;;;;;1.30;1.30;;;;;;;6.33;98.20;95202.78;4299902;32;20333;-61
2023/04/16 00:43:21;;;;;;;0.63;0.63;;;;;;;6.39;97.58;95196.47;4279098;32;20350;-61
2023/04/16 00:45:55;;;;;;;1.33;1.23;;;;;;;6.39;97.34;95196.47;4316844;33;20304;-61
2023/04/16 00:48:22;;;;;;;0.87;0.87;;;;;;;6.17;98.24;95202.06;4337911;32;20336;-61
2023/04/16 00:50:51;;;;;;;0.47;0.47;;;;;;;6.27;98.21;95204.66;4330917;32;20290;-61
2023/04/16 00:53:18;;;;;;;0.73;0.73;;;;;;;6.30;97.80;95193.56;4324998;32;20282;-61
2023/04/16 00:55:45;;;;;;;1.33;1.33;;;;;;;6.16;98.53;95200.47;4311392;32;20281;-61
2023/04/16 00:58:21;;;;;;;0.30;0.30;;;;;;;6.20;98.36;95199.69;4326996;32;20333;-61
2023/04/16 01:00:49;;;;;;;1.23;1.23;;;;;;;6.34;97.60;95202.53;4317505;32;20285;-61
2023/04/16 01:03:16;;;;;;;0.30;0.30;;;;;;;6.10;97.95;95199.69;4347510;32;20288;-61
2023/04/16 01:05:42;;;;;;;1.37;1.27;;;;;;;6.19;98.25;95195.47;4324208;32;20398;-61
2023/04/16 01:08:20;;;;;;;0.93;0.93;;;;;;;6.36;97.71;95205.69;4313639;32;20294;-61
2023/04/16 01:10:46;;;;;;;0.80;0.80;;;;;;;6.20;97.68;95204.94;4298885;33;20190;-61
2023/04/16 01:13:13;;;;;;;0.73;0.73;;;;;;;6.35;97.67;95195.41;4318405;32;20309;-61
2023/04/16 01:15:41;;;;;;;0.50;0.50;;;;;;;6.38;97.59;95200.16;4324804;32;20306;-61
2023/04/16 01:18:15;;;;;;;0.40;0.40;;;;;;;6.24;97.63;95201.75;4337867;32;20288;-61
2023/04/16 01:20:41;;;;;;;0.40;0.40;;;;;;;6.39;97.09;95196.47;4322351;32;20341;-61
2023/04/16 01:23:10;;;;;;;0.50;0.50;;;;;;;6.33;97.42;95208.06;4345640;32;20331;-58
2023/04/16 01:25:38;;;;;;;0.93;0.63;;;;;;;6.52;97.09;95207.19;4332115;32;20208;-59
2023/04/16 01:28:04;;;;;;;0.90;0.90;;;;;;;6.33;97.45;95208.06;4351052;32;20295;-59
2023/04/16 01:30:33;;;;;;;0.97;0.97;;;;;;;6.36;97.35;95213.59;4311917;33;20294;-58
2023/04/16 01:32:58;;;;;;;1.23;1.20;;;;;;;6.37;97.42;95207.25;4338036;32;20307;-61
2023/04/16 01:35:25;;;;;;;0.30;0.30;;;;;;;6.31;97.86;95215.44;4314726;32;20290;-61
2023/04/16 01:37:52;;;;;;;0.60;0.60;;;;;;;6.35;97.71;95209.38;4327639;32;20292;-61
2023/04/16 01:40:20;;;;;;;1.17;1.17;;;;;;;6.41;97.64;95215.41;4349679;32;20413;-61
2023/04/16 01:42:46;;;;;;;0.87;0.87;;;;;;;6.35;97.54;95219.91;4354963;32;20343;-61
2023/04/16 01:45:13;;;;;;;0.60;0.60;;;;;;;6.14;98.26;95221.81;4345698;32;20334;-61
2023/04/16 01:47:42;;;;;;;1.00;1.00;;;;;;;6.29;97.90;95222.81;4343868;32;20239;-58
2023/04/16 01:50:13;;;;;;;1.00;1.00;;;;;;;6.19;97.98;95224.44;4340036;32;20277;-58
2023/04/16 01:52:41;;;;;;;0.90;0.90;;;;;;;6.12;98.01;95223.94;4320369;32;20282;-58
2023/04/16 01:55:11;;;;;;;1.27;1.10;;;;;;;6.14;98.62;95221.81;4305230;32;20283;-58
2023/04/16 01:57:36;;;;;;;0.87;0.87;;;;;;;6.25;98.50;95221.78;4339865;32;20301;-59
2023/04/16 02:00:06;;;;;;;0.70;0.70;;;;;;;6.24;98.31;95223.63;4357522;32;20303;-59
2023/04/16 02:02:37;;;;;;;1.07;1.07;;;;;;;6.15;98.48;95223.41;4335898;32;20189;-59
2023/04/16 02:05:04;;;;;;;0.60;0.60;;;;;;;6.27;98.01;95219.66;4339109;32;20327;-59
2023/04/16 02:07:35;;;;;;;1.03;1.03;;;;;;;6.33;97.91;95216.75;4349658;32;20285;-58
2023/04/16 02:10:04;;;;;;;0.73;0.73;;;;;;;6.47;97.03;95220.38;4262758;32;20297;-58
2023/04/16 02:12:29;;;;;;;1.20;1.13;;;;;;;6.44;96.81;95222.78;4319699;32;20361;-61
2023/04/16 02:14:57;;;;;;;1.10;1.10;;;;;;;6.48;96.99;95226.44;4341093;32;20286;-59
2023/04/16 02:17:27;;;;;;;1.60;1.13;;;;;;;6.36;97.70;95223.34;4339001;32;20283;-59
2023/04/16 02:19:55;;;;;;;0.67;0.67;;;;;;;6.50;97.06;95232.22;4338499;32;20305;-58
2023/04/16 02:22:21;;;;;;;1.03;1.03;;;;;;;6.44;97.35;95220.91;4335942;32;21477;-59
2023/04/16 02:24:49;;;;;;;0.97;0.97;;;;;;;6.37;97.25;95224.91;4325397;32;20281;-58
2023/04/16 02:27:18;;;;;;;1.03;1.03;;;;;;;6.48;96.67;95227.22;4326362;32;20186;-58
2023/04/16 02:29:44;;;;;;;0.50;0.50;;;;;;;6.34;96.90;95220.19;4336920;32;20316;-59
2023/04/16 02:32:12;;;;;;;0.93;0.93;;;;;;;6.32;97.55;95224.91;4316279;32;20335;-59
2023/04/16 02:34:39;;;;;;;1.00;1.00;;;;;;;6.20;97.98;95230.50;4310815;33;20343;-59
2023/04/16 02:37:10;;;;;;;1.23;0.70;;;;;;;6.32;97.64;95228.34;4324151;32;20274;-61
2023/04/16 02:39:41;;;;;;;1.47;1.37;;;;;;;6.24;98.08;95226.25;4303383;32;20305;-58
2023/04/16 02:42:09;;;;;;;0.90;0.90;;;;;;;6.27;98.34;95227.56;4340499;32;20287;-59
2023/04/16 02:44:35;;;;;;;1.20;1.20;;;;;;;6.19;97.63;95219.19;4346000;32;20281;-59
2023/04/16 02:47:01;;;;;;;0.67;0.67;;;;;;;6.31;98.22;95220.72;4316084;32;20297;-58
2023/04/16 02:49:28;;;;;;;0.87;0.87;;;;;;;6.19;98.48;95224.44;4332857;32;20221;-58
2023/04/16 02:51:53;;;;;;;1.07;1.07;;;;;;;6.20;98.47;95223.38;4346172;32;20274;-58
2023/04/16 02:54:19;;;;;;;1.70;1.07;;;;;;;6.24;98.35;95225.47;4347031;32;20360;-59
2023/04/16 02:56:44;;;;;;;1.10;1.10;;;;;;;6.29;98.10;95228.88;4343098;32;20181;-58
2023/04/16 02:59:09;;;;;;;0.33;0.33;;;;;;;6.33;97.80;95232.56;4333263;32;20169;-59
2023/04/16 03:01:35;;;;;;;0.97;0.97;;;;;;;6.35;98.08;95237.56;4346580;32;20196;-58
2023/04/16 03:04:00;;;;;;;0.93;0.80;;;;;;;6.40;97.92;95242.81;4343592;32;20206;-59
2023/04/16 03:06:25;;;;;;;0.63;0.40;;;;;;;6.36;97.93;95247.03;4344835;32;20270;-58
2023/04/16 03:08:51;;;;;;;1.03;0.70;;;;;;;6.34;97.74;95239.41;4341054;32;20276;-59
2023/04/16 03:11:16;;;;;;;1.07;1.07;;;;;;;6.41;97.71;95242.56;4337449;32;20182;-58
2023/04/16 03:13:42;;;;;;;0.60;0.57;;;;;;;6.44;97.59;95249.12;4349180;32;20173;-59
2023/04/16 03:16:07;;;;;;;0.63;0.63;;;;;;;6.66;96.66;95248.75;4341925;32;20232;-58
2023/04/16 03:18:32;;;;;;;0.50;0.50;;;;;;;6.39;96.58;95254.41;4337461;32;20185;-59
2023/04/16 03:20:58;;;;;;;0.90;0.90;;;;;;;6.37;97.22;95246.78;4340880;32;20200;-58
2023/04/16 03:23:23;;;;;;;0.50;0.50;;;;;;;6.41;97.37;95252.31;4351661;32;20219;-59
2023/04/16 03:25:48;;;;;;;0.70;0.70;;;;;;;6.38;97.05;95242.28;4355311;32;20193;-58
2023/04/16 03:28:14;;;;;;;1.03;1.03;;;;;;;6.54;96.42;95252.50;4339345;32;20240;-59
2023/04/16 03:30:39;;;;;;;0.57;0.57;;;;;;;6.55;96.11;95248.81;4351911;32;20181;-58
2023/04/16 03:33:04;;;;;;;0.80;0.80;;;;;;;6.33;96.92;95250.22;4337301;32;20189;-58
2023/04/16 03:35:30;;;;;;;0.30;0.30;;;;;;;6.31;96.76;95253.09;4357685;32;20190;-59
2023/04/16 03:37:55;;;;;;;0.90;0.90;;;;;;;6.24;97.48;95252.59;4347047;32;20181;-59
2023/04/16 03:40:21;;;;;;;0.43;0.43;;;;;;;6.30;97.57;95256.78;4358885;32;20257;-58
2023/04/16 03:42:46;;;;;;;0.93;0.80;;;;;;;6.38;96.90;95260.75;4341362;32;20189;-58
2023/04/16 03:45:11;;;;;;;0.40;0.40;;;;;;;6.32;97.18;95259.16;4345731;32;20177;-58
2023/04/16 03:47:37;;;;;;;0.93;0.93;;;;;;;6.33;97.52;95255.47;4354300;32;20220;-59
2023/04/16 03:50:02;;;;;;;0.60;0.60;;;;;;;6.50;96.96;95261.22;4336733;32;20244;-59
2023/04/16 03:52:27;;;;;;;0.23;0.23;;;;;;;6.55;96.46;95266.47;4356718;32;20191;-59
2023/04/16 03:54:53;;;;;;;0.67;0.67;;;;;;;6.41;96.49;95255.72;4352891;32;20169;-59
2023/04/16 03:57:18;;;;;;;0.23;0.23;;;;;;;6.44;96.64;95257.81;4350969;32;20177;-59
2023/04/16 03:59:43;;;;;;;0.80;0.80;;;;;;;6.58;96.07;95265.16;4337544;32;20185;-58
2023/04/16 04:02:09;;;;;;;0.80;0.80;;;;;;;6.47;96.55;95264.38;4344378;32;20185;-59
2023/04/16 04:04:34;;;;;;;1.57;0.80;;;;;;;6.26;96.89;95262.84;4360187;32;20209;-58
2023/04/16 04:07:00;;;;;;;0.67;0.67;;;;;;;6.23;97.42;95264.22;4361514;32;20197;-58
2023/04/16 04:09:25;;;;;;;0.77;0.77;;;;;;;6.41;97.37;95273.38;4359752;32;20226;-59
2023/04/16 04:11:50;;;;;;;0.60;0.60;;;;;;;6.48;97.09;95279.94;4339029;32;20237;-59
2023/04/16 04:14:16;;;;;;;0.27;0.27;;;;;;;6.53;96.80;95287.03;4340767;32;20181;-58
2023/04/16 04:16:41;;;;;;;0.53;0.53;;;;;;;6.35;97.12;95284.97;4353771;32;20282;-61
2023/04/16 04:19:06;;;;;;;0.83;0.83;;;;;;;6.28;97.40;95276.56;4341138;32;20189;-61
2023/04/16 04:21:32;;;;;;;0.97;0.97;;;;;;;6.14;97.81;95278.97;4335567;32;20177;-62
2023/04/16 04:23:57;;;;;;;0.40;0.40;;;;;;;6.23;97.87;95277.38;4361374;32;20174;-61
2023/04/16 04:26:22;;;;;;;0.80;0.80;;;;;;;6.16;98.19;95282.13;4345934;32;20188;-61
2023/04/16 04:28:48;;;;;;;0.57;0.57;;;;;;;6.18;98.43;95280.00;4360721;32;20184;-61
2023/04/16 04:31:13;;;;;;;0.30;0.30;;;;;;;6.20;98.42;95283.97;4346445;32;20200;-61
2023/04/16 04:33:38;;;;;;;0.57;0.57;;;;;;;6.20;98.73;95283.97;4334999;32;20185;-59
2023/04/16 04:36:04;;;;;;;0.60;0.60;;;;;;;6.31;98.45;95281.28;4350764;32;20196;-59
2023/04/16 04:38:30;;;;;;;1.10;1.10;;;;;;;6.33;98.41;95287.09;4343441;32;20181;-59
2023/04/16 04:40:55;;;;;;;0.23;0.23;;;;;;;6.11;99.00;95290.81;4359432;32;20181;-58
2023/04/16 04:43:21;;;;;;;0.60;0.60;;;;;;;6.31;99.13;95283.94;4340924;32;22784;-59
2023/04/16 04:45:47;;;;;;;0.83;0.83;;;;;;;6.22;99.36;95290.81;4350571;32;20181;-58
2023/04/16 04:48:13;;;;;;;0.40;0.40;;;;;;;6.30;98.88;95292.88;4334692;32;20181;-59
2023/04/16 04:50:39;;;;;;;0.67;0.67;;;;;;;6.16;99.15;95296.09;4346252;32;20346;-58
2023/04/16 04:53:08;;;;;;;0.87;0.87;;;;;;;6.16;99.48;95298.72;4354167;32;20220;-58
2023/04/16 04:55:36;;;;;;;1.30;1.30;;;;;;;6.18;99.75;95296.59;4337989;32;20278;-59
2023/04/16 04:58:03;;;;;;;1.17;1.10;;;;;;;6.24;99.92;95309.75;4359374;32;20281;-59
2023/04/16 05:00:28;;;;;;;0.50;0.50;;;;;;;6.17;99.68;95299.50;4351546;32;20291;-59
2023/04/16 05:02:54;;;;;;;0.60;0.60;;;;;;;6.26;99.61;95305.78;4356447;32;20278;-59
2023/04/16 05:05:19;;;;;;;0.40;0.40;;;;;;;6.32;99.19;95306.59;4360183;32;20250;-59
2023/04/16 05:07:44;;;;;;;0.50;0.50;;;;;;;6.28;99.35;95310.78;4357843;32;20307;-58
2023/04/16 05:10:10;;;;;;;0.23;0.23;;;;;;;6.26;99.30;95312.91;4357869;32;20189;-59
2023/04/16 05:12:35;;;;;;;1.37;0.40;;;;;;;6.34;99.17;95312.38;4358325;32;20199;-58
2023/04/16 05:15:00;;;;;;;0.60;0.60;;;;;;;6.24;99.40;95309.75;4359489;32;20177;-58
2023/04/16 05:17:26;;;;;;;0.67;0.67;;;;;;;6.27;99.41;95312.66;4363672;32;20185;-59
2023/04/16 05:19:51;;;;;;;0.67;0.67;;;;;;;6.39;99.46;95325.56;4357702;32;20291;-59
2023/04/16 05:22:17;;;;;;;0.80;0.80;;;;;;;6.13;99.20;95322.94;4360017;32;20185;-59
2023/04/16 05:24:43;;;;;;;0.50;0.50;;;;;;;6.29;99.04;95317.66;4344348;32;20181;-59
2023/04/16 05:27:08;;;;;;;0.53;0.53;;;;;;;6.39;98.86;95323.69;4339458;32;20288;-58
2023/04/16 05:29:33;;;;;;;0.57;0.57;;;;;;;6.53;98.93;95323.94;4339639;32;20193;-59
2023/04/16 05:31:59;;;;;;;0.40;0.40;;;;;;;6.42;98.83;95327.66;4358765;32;20215;-59
2023/04/16 05:34:24;;;;;;;1.37;0.60;;;;;;;6.48;98.84;95329.19;4338377;32;20234;-61
2023/04/16 05:36:50;;;;;;;0.30;0.30;;;;;;;6.55;98.58;95337.63;4352195;32;20205;-59
2023/04/16 05:39:16;;;;;;;0.20;0.20;;;;;;;6.41;98.76;95331.34;4345832;32;20209;-59
2023/04/16 05:41:41;;;;;;;0.80;0.77;;;;;;;6.50;98.93;95341.06;4349132;32;20578;-59
2023/04/16 05:44:06;;;;;;;0.30;0.30;;;;;;;6.56;97.81;95339.22;4345335;32;20192;-59
2023/04/16 05:46:31;;;;;;;1.30;0.67;;;;;;;6.32;98.31;95327.66;4344029;32;20189;-60
2023/04/16 05:48:57;;;;;;;0.30;0.30;;;;;;;6.45;98.71;95335.00;4355380;32;20186;-58
2023/04/16 05:51:24;;;;;;;0.40;0.40;;;;;;;6.29;99.15;95333.44;4356591;32;20177;-59
2023/04/16 05:53:50;;;;;;;0.07;0.07;;;;;;;6.36;99.08;95339.25;4359106;32;20204;-58
2023/04/16 05:56:15;;;;;;;0.20;0.20;;;;;;;6.40;98.84;95340.31;4341829;32;20278;-58
2023/04/16 05:58:40;;;;;;;0.77;0.77;;;;;;;6.26;98.97;95336.63;4360132;32;20453;-59
2023/04/16 06:01:06;;;;;;;0.30;0.30;;;;;;;6.32;99.25;95344.25;4353660;32;20173;-58
2023/04/16 06:03:31;;;;;;;0.30;0.30;;;;;;;6.09;99.83;95350.84;4359676;32;20181;-59
2023/04/16 06:05:57;;;;;;;0.20;0.20;;;;;;;6.14;99.44;95342.97;4337563;32;20189;-59
2023/04/16 06:08:22;;;;;;;0.30;0.30;;;;;;;6.33;98.82;95351.09;4341261;32;20177;-59
2023/04/16 06:10:48;;;;;;;0.33;0.33;;;;;;;6.31;98.45;95352.41;4359008;32;20203;-58
2023/04/16 06:13:13;;;;;;;0.13;0.13;;;;;;;6.33;99.02;95352.94;4353342;32;20194;-59
2023/04/16 06:15:39;;;;;;;2.23;0.73;;;;;;;6.40;98.74;95354.25;4355035;32;20181;-59
2023/04/16 06:18:04;;;;;;;0.10;0.10;;;;;;;6.34;98.69;95357.94;4355514;32;20189;-59
2023/04/16 06:20:30;;;;;;;0.33;0.33;;;;;;;6.42;99.14;95359.28;4363463;32;20250;-58
2023/04/16 06:22:55;;;;;;;0.10;0.10;;;;;;;6.61;98.49;95362.94;4357257;32;20190;-58
2023/04/16 06:25:21;;;;;;;0.17;0.17;;;;;;;6.51;98.21;95360.28;4337050;32;20311;-58
2023/04/16 06:27:46;;;;;;;0.20;0.20;;;;;;;6.54;98.18;95367.66;4351660;32;20189;-58
2023/04/16 06:30:13;;;;;;;0.07;0.07;;;;;;;6.77;97.61;95356.56;4360861;32;20217;-59
2023/04/16 06:32:38;;;;;;;0.00;0.00;;;;;;;6.91;97.34;95362.03;4340937;32;20181;-59
2023/04/16 06:35:04;;;;;;;0.00;0.00;;;;;;;6.84;96.68;95359.72;4343500;32;20377;-59
2023/04/16 06:37:30;;;;;;;0.17;0.17;;;;;;;6.69;97.30;95366.84;4348354;32;20227;-59
2023/04/16 06:39:55;;;;;;;1.10;0.60;;;;;;;6.58;97.37;95360.81;4358784;32;20200;-58
2023/04/16 06:42:20;;;;;;;0.50;0.40;;;;;;;6.67;98.01;95361.03;4344062;32;20185;-58
2023/04/16 06:44:46;;;;;;;0.20;0.20;;;;;;;6.71;98.23;95362.88;4346218;32;20204;-58
2023/04/16 06:47:12;;;;;;;0.20;0.20;;;;;;;6.64;97.89;95372.94;4359491;32;20270;-59
2023/04/16 06:49:38;;;;;;;0.13;0.13;;;;;;;6.79;97.85;95372.09;4360780;32;20200;-59
2023/04/16 06:52:04;;;;;;;0.00;0.00;;;;;;;6.65;98.20;95385.03;4356083;32;20203;-59
2023/04/16 06:54:30;;;;;;;0.00;0.00;;;;;;;6.95;97.57;95378.12;4356043;32;20352;-59
2023/04/16 06:56:55;;;;;;;0.10;0.10;;;;;;;6.98;96.90;95382.84;4342981;32;20207;-58
2023/04/16 06:59:21;;;;;;;0.57;0.43;;;;;;;6.98;96.62;95382.84;4360097;32;20244;-58
2023/04/16 07:01:46;;;;;;;0.00;0.00;;;;;;;6.99;96.42;95384.44;4350840;32;20224;-58
2023/04/16 07:04:11;;;;;;;0.00;0.00;;;;;;;7.11;96.47;95382.28;4343543;32;20232;-59
2023/04/16 07:06:37;;;;;;;0.10;0.10;;;;;;;7.11;96.30;95387.56;4346482;32;20267;-59
2023/04/16 07:09:06;;;;;;;0.10;0.10;;;;;;;7.15;96.21;95392.03;4329723;32;20189;-58
2023/04/16 07:11:39;;;;;;;0.00;0.00;;;;;;;7.10;96.53;95389.41;4305032;32;20271;-59
2023/04/16 07:14:05;;;;;;;0.10;0.10;;;;;;;7.14;96.61;95393.09;4337485;32;20294;-58
2023/04/16 07:16:31;;;;;;;0.00;0.00;;;;;;;7.14;96.79;95398.37;4336697;32;20375;-59
2023/04/16 07:18:59;;;;;;;0.00;0.00;;;;;;;7.09;95.75;95394.94;4351921;32;20181;-59
2023/04/16 07:21:25;;;;;;;0.00;0.00;;;;;;;7.04;96.50;95398.41;4330579;32;20280;-59
2023/04/16 07:23:52;;;;;;;0.00;0.00;;;;;;;7.02;97.29;95394.47;4329959;32;20352;-59
2023/04/16 07:26:17;;;;;;;0.20;0.20;;;;;;;7.09;97.54;95397.56;4347650;32;20197;-59
2023/04/16 07:28:44;;;;;;;0.07;0.07;;;;;;;7.07;97.33;95397.84;4317694;32;20342;-58
2023/04/16 07:31:11;;;;;;;0.10;0.10;;;;;;;7.15;96.81;95389.37;4324403;32;20192;-58
2023/04/16 07:33:37;;;;;;;0.10;0.10;;;;;;;7.13;96.04;95385.44;4332716;32;20393;-59
2023/04/16 07:36:10;;;;;;;0.00;0.00;;;;;;;7.14;96.03;95387.81;4353101;32;20285;-59
2023/04/16 07:38:37;;;;;;;0.00;0.00;;;;;;;7.28;96.22;95398.56;4354942;32;20193;-59
2023/04/16 07:41:06;;;;;;;0.00;0.00;;;;;;;7.26;95.90;95397.28;4348687;32;20281;-59
2023/04/16 07:43:32;;;;;;;0.00;0.00;;;;;;;7.03;96.53;95396.03;4336133;32;20412;-60
2023/04/16 07:45:58;;;;;;;0.00;0.00;;;;;;;7.38;96.17;95403.81;4339321;32;20364;-59
2023/04/16 07:48:27;;;;;;;0.00;0.00;;;;;;;7.21;96.50;95398.88;4331786;32;20177;-59
2023/04/16 07:50:53;;;;;;;0.00;0.00;;;;;;;7.28;96.28;95393.28;4288050;33;20315;-59
2023/04/16 07:53:19;;;;;;;0.00;0.00;;;;;;;7.41;94.82;95399.84;4312132;32;20269;-59
2023/04/16 07:55:45;;;;;;;0.10;0.10;;;;;;;7.19;96.34;95410.75;4341495;32;20316;-59
2023/04/16 07:58:11;;;;;;;0.10;0.10;;;;;;;7.22;95.19;95407.56;4343925;32;20285;-59
2023/04/16 08:00:37;;;;;;;0.10;0.10;;;;;;;7.24;96.39;95414.16;4337302;32;20197;-58
2023/04/16 08:03:03;;;;;;;0.10;0.10;;;;;;;7.28;96.46;95414.41;4311337;32;20386;-59
2023/04/16 08:05:30;;;;;;;0.10;0.10;;;;;;;7.47;96.01;95412.75;4340636;32;20193;-59
2023/04/16 08:07:57;;;;;;;0.10;0.10;;;;;;;7.34;96.02;95409.91;4346778;32;20368;-58
2023/04/16 08:10:24;;;;;;;1.27;0.30;;;;;;;7.40;95.14;95417.53;4341428;32;20388;-58
2023/04/16 08:12:52;;;;;;;0.00;0.00;;;;;;;7.46;95.22;95415.66;4350829;32;20295;-58
2023/04/16 08:15:18;;;;;;;0.00;0.00;;;;;;;7.41;95.64;95413.03;4326138;32;20303;-59
2023/04/16 08:17:45;;;;;;;0.27;0.20;;;;;;;7.58;95.24;95422.19;4338680;32;20277;-58
2023/04/16 08:20:11;;;;;;;0.10;0.10;;;;;;;7.49;95.31;95426.44;4345199;32;20204;-59
2023/04/16 08:22:38;;;;;;;0.03;0.03;;;;;;;7.24;94.81;95424.72;4310442;33;20290;-59
2023/04/16 08:25:04;;;;;;;0.10;0.10;;;;;;;7.35;95.19;95422.03;4340394;32;20273;-59
2023/04/16 08:27:31;;;;;;;0.10;0.10;;;;;;;7.46;94.92;95426.22;4350849;32;20308;-59
2023/04/16 08:29:57;;;;;;;0.27;0.27;;;;;;;7.39;94.40;95426.50;4334264;32;20189;-59
2023/04/16 08:32:27;;;;;;;0.37;0.37;;;;;;;7.63;94.65;95426.66;4337013;32;20352;-59
2023/04/16 08:34:54;;;;;;;0.10;0.10;;;;;;;7.55;94.81;95425.38;4350995;32;20372;-59
2023/04/16 08:37:20;;;;;;;0.10;0.10;;;;;;;7.54;94.48;95431.72;4333225;32;20300;-59
2023/04/16 08:39:47;;;;;;;0.57;0.57;;;;;;;7.63;94.90;95425.88;4342984;32;20345;-59
2023/04/16 08:42:56;;;;;;;0.00;0.00;;;;;;;7.72;94.08;95430.31;4332567;32;20424;-59
2023/04/16 08:45:25;;;;;;;0.00;0.00;;;;;;;7.65;93.01;95429.03;4359187;32;20291;-59
2023/04/16 08:47:54;;;;;;;0.00;0.00;;;;;;;7.81;93.59;95430.53;4295177;32;20285;-59
2023/04/16 08:50:27;;;;;;;0.00;0.00;;;;;;;7.84;93.46;95437.91;4318232;32;20274;-59
2023/04/16 08:53:07;;;;;;;0.00;0.00;;;;;;;8.02;93.29;95439.91;4318440;32;20376;-59
2023/04/16 08:55:45;;;;;;;0.10;0.10;;;;;;;8.00;92.48;95436.75;4277281;33;20278;-59
2023/04/16 08:58:24;;;;;;;0.00;0.00;;;;;;;8.26;92.23;95445.31;4332702;32;20281;-59
2023/04/16 09:00:54;;;;;;;0.20;0.20;;;;;;;8.10;92.28;95439.34;4319915;32;20282;-59
2023/04/16 09:03:22;;;;;;;0.07;0.07;;;;;;;8.35;92.12;95442.87;4354326;32;20281;-59
2023/04/16 09:05:52;;;;;;;0.00;0.00;;;;;;;8.38;90.79;95447.62;4306060;32;20290;-59
2023/04/16 09:08:20;;;;;;;0.00;0.00;;;;;;;8.50;90.75;95451.50;4331276;32;20285;-61
2023/04/16 09:10:51;;;;;;;0.00;0.00;;;;;;;8.40;90.89;95445.50;4328707;32;20290;-58
2023/04/16 09:13:22;;;;;;;0.00;0.00;;;;;;;8.38;91.32;95451.06;4333609;32;20186;-59
2023/04/16 09:15:52;;;;;;;0.10;0.10;;;;;;;8.41;90.78;95457.66;4351193;32;20339;-59
2023/04/16 09:18:20;;;;;;;0.00;0.00;;;;;;;8.48;91.34;95455.50;4312497;32;20287;-59
2023/04/16 09:20:55;;;;;;;0.00;0.00;;;;;;;8.36;90.91;95469.03;4327883;32;20278;-59
2023/04/16 09:23:29;;;;;;;0.10;0.10;;;;;;;8.46;90.14;95462.91;4340986;32;20290;-59
2023/04/16 09:26:00;;;;;;;0.00;0.00;;;;;;;8.68;89.85;95462.47;4344310;32;20285;-59
2023/04/16 09:29:00;;;;;;;0.00;0.00;;;;;;;8.55;90.83;95461.22;4317940;32;20368;-59
2023/04/16 09:31:29;;;;;;;0.00;0.00;;;;;;;8.71;89.44;95452.13;4313037;33;20293;-59
2023/04/16 09:34:09;;;;;;;0.00;0.00;;;;;;;8.79;89.60;95454.16;4297495;32;20341;-59
2023/04/16 09:36:36;;;;;;;0.00;0.00;;;;;;;9.05;89.49;95459.22;4334395;32;20286;-59
2023/04/16 09:39:03;;;;;;;0.17;0.17;;;;;;;9.05;88.03;95457.38;4333096;32;20308;-59
2023/04/16 09:41:38;;;;;;;0.10;0.10;;;;;;;8.93;88.34;95454.31;4322500;32;20321;-59
2023/04/16 09:44:05;;;;;;;0.00;0.00;;;;;;;8.96;87.80;95453.75;4341293;32;20318;-59
2023/04/16 09:46:36;;;;;;;0.00;0.00;;;;;;;8.74;87.99;95461.34;4349698;32;20283;-59
2023/04/16 09:49:13;;;;;;;0.20;0.00;;;;;;;8.72;88.82;95463.50;4326694;32;20189;-59
2023/04/16 09:51:56;;;;;;;0.00;0.00;;;;;;;9.07;87.63;95459.72;4341482;32;20312;-59
2023/04/16 09:54:25;;;;;;;0.00;0.00;;;;;;;9.07;86.82;95460.53;4346037;32;23126;-59
2023/04/16 09:56:59;;;;;;;0.00;0.00;;;;;;;9.00;86.29;95457.41;4358612;32;20264;-59
2023/04/16 09:59:32;;;;;;;0.13;0.13;;;;;;;9.02;86.73;95462.41;4282449;33;20376;-59
2023/04/16 10:02:05;;;;;;;0.00;0.00;;;;;;;9.06;86.32;95463.44;4350054;32;20357;-59
2023/04/16 10:04:51;;;;;;;0.00;0.00;;;;;;;9.07;85.53;95465.03;4343400;32;20292;-59
2023/04/16 10:07:19;;;;;;;0.00;0.00;;;;;;;9.11;86.20;95466.06;4333455;32;20300;-59
2023/04/16 10:09:51;;;;;;;0.00;0.00;;;;;;;9.09;86.83;95468.97;4339046;32;20198;-59
2023/04/16 10:12:18;;;;;;;0.00;0.00;;;;;;;9.07;87.37;95471.09;4329520;32;20421;-59
2023/04/16 10:14:43;;;;;;;0.00;0.00;;;;;;;9.14;85.49;95471.56;4341612;32;20267;-59
2023/04/16 10:17:10;;;;;;;0.00;0.00;;;;;;;9.07;85.28;95471.09;4344778;32;20308;-59
2023/04/16 10:19:38;;;;;;;0.07;0.07;;;;;;;9.27;85.03;95470.12;4344983;32;20193;-59
2023/04/16 10:22:04;;;;;;;0.00;0.00;;;;;;;9.37;84.74;95471.84;4342545;32;20312;-59
2023/04/16 10:24:34;;;;;;;0.00;0.00;;;;;;;9.38;85.22;95468.91;4339222;32;20200;-59
2023/04/16 10:27:01;;;;;;;0.03;0.03;;;;;;;9.44;85.36;95462.50;4333412;32;20227;-60
2023/04/16 10:29:30;;;;;;;0.27;0.27;;;;;;;9.34;86.09;95465.28;4342347;32;20281;-59
2023/04/16 10:32:00;;;;;;;0.00;0.00;;;;;;;9.34;85.40;95467.94;4353582;32;20270;-59
2023/04/16 10:34:27;;;;;;;0.10;0.10;;;;;;;9.43;84.53;95474.16;4335899;32;20278;-59
2023/04/16 10:36:56;;;;;;;0.00;0.00;;;;;;;9.29;85.74;95468.75;4325455;32;20357;-59
2023/04/16 10:39:23;;;;;;;0.20;0.20;;;;;;;9.30;85.25;95466.91;4352898;32;20188;-59
2023/04/16 10:42:06;;;;;;;0.10;0.10;;;;;;;9.18;86.08;95467.28;4314335;32;20280;-59
2023/04/16 10:44:33;;;;;;;0.43;0.43;;;;;;;9.36;86.17;95468.41;4346359;32;20286;-59
2023/04/16 10:47:00;;;;;;;0.20;0.20;;;;;;;9.34;85.23;95470.56;4340467;32;20189;-60
2023/04/16 10:49:27;;;;;;;0.20;0.20;;;;;;;9.32;85.07;95472.72;4328123;32;20398;-59
2023/04/16 10:52:06;;;;;;;0.00;0.00;;;;;;;9.20;85.74;95469.66;4345767;32;20275;-60
2023/04/16 10:54:35;;;;;;;0.10;0.10;;;;;;;9.12;86.71;95472.91;4333658;32;20286;-59
2023/04/16 10:57:17;;;;;;;0.20;0.20;;;;;;;9.11;86.71;95471.34;4303774;32;20283;-59
2023/04/16 10:59:47;;;;;;;0.10;0.10;;;;;;;9.20;86.63;95480.22;4344046;32;20340;-59
2023/04/16 11:02:16;;;;;;;0.00;0.00;;;;;;;9.37;87.35;95472.63;4353308;32;20316;-60
2023/04/16 11:04:48;;;;;;;0.00;0.00;;;;;;;9.47;85.31;95475.19;4326647;32;20320;-60
2023/04/16 11:07:20;;;;;;;0.00;0.00;;;;;;;9.67;85.54;95478.66;4360978;32;20284;-60
2023/04/16 11:10:08;;;;;;;0.20;0.20;;;;;;;9.71;83.95;95479.69;4353118;32;20177;-59
2023/04/16 11:12:39;;;;;;;0.07;0.07;;;;;;;9.77;83.96;95475.91;4339665;32;20205;-60
2023/04/16 11:15:15;;;;;;;0.00;0.00;;;;;;;9.48;83.40;95484.72;4332774;32;20209;-60
2023/04/16 11:17:45;;;;;;;0.00;0.00;;;;;;;9.59;83.05;95483.50;4343637;32;20218;-59
2023/04/16 11:20:25;;;;;;;0.10;0.10;;;;;;;9.56;82.84;95488.59;4315972;32;20308;-59
2023/04/16 11:22:58;;;;;;;0.00;0.00;;;;;;;9.41;83.52;95492.19;4328677;32;20300;-59
2023/04/16 11:25:33;;;;;;;0.30;0.30;;;;;;;9.34;83.03;95491.75;4336305;32;20330;-59
2023/04/16 11:28:02;;;;;;;0.00;0.00;;;;;;;9.57;83.54;95479.56;4331487;32;20199;-59
2023/04/16 11:30:32;;;;;;;0.20;0.20;;;;;;;9.55;82.85;95492.31;4336442;32;20188;-60
2023/04/16 11:33:21;;;;;;;0.00;0.00;;;;;;;9.51;82.96;95486.81;4328849;32;20291;-59
2023/04/16 11:35:59;;;;;;;7.10;0.47;;;;;;;9.60;82.88;95495.69;4333618;32;20282;-60
2023/04/16 11:38:41;;;;;;;0.00;0.00;;;;;;;9.41;82.96;95497.47;4290190;32;20228;-59
2023/04/16 11:41:11;;;;;;;0.00;0.00;;;;;;;9.30;82.70;95490.72;4323576;32;20329;-60
2023/04/16 11:43:38;;;;;;;0.20;0.20;;;;;;;9.43;83.55;95497.22;4326074;32;20278;-60
2023/04/16 11:46:06;;;;;;;0.00;0.00;;;;;;;9.43;82.81;95489.25;4327402;32;20358;-59